createdAt,value
2023-04-08T05:00:36.309Z,209.43
2023-04-08T05:05:37.836Z,237.43
2023-04-08T05:10:41.193Z,197.63
2023-04-08T05:15:42.890Z,136.52
2023-04-08T05:20:44.360Z,207.77
2023-04-08T05:25:45.990Z,110.28
2023-04-08T05:30:52.020Z,193.68
2023-04-08T05:35:53.607Z,147.45
2023-04-08T05:40:55.601Z,187.88
2023-04-08T05:45:57.104Z,246.27
2023-04-08T05:50:58.521Z,318.80
2023-04-08T05:55:59.945Z,352.20
2023-04-08T06:01:01.547Z,398.23
2023-04-08T06:06:03.131Z,290.80
2023-04-08T06:11:05.200Z,351.35
2023-04-08T06:16:14.678Z,386.45
2023-04-08T06:21:16.535Z,334.23
2023-04-08T06:26:18.057Z,284.27
2023-04-08T06:31:19.600Z,233.52
2023-04-08T06:36:21.065Z,65.88
2023-04-08T06:41:22.501Z,64.05
2023-04-08T06:46:25.569Z,123.53
2023-04-08T06:51:27.816Z,264.13
2023-04-08T06:56:29.263Z,320.00
2023-04-08T07:01:31.970Z,415.65
2023-04-08T07:06:33.452Z,177.55
2023-04-08T07:11:35.018Z,116.00
2023-04-08T07:16:36.542Z,218.88
2023-04-08T07:21:37.987Z,296.00
2023-04-08T07:26:39.545Z,129.60
2023-04-08T07:31:42.684Z,45.13
2023-04-08T07:36:44.268Z,22.30
2023-04-08T07:41:45.963Z,30.55
2023-04-08T07:46:51.399Z,23.02
2023-04-08T07:51:53.119Z,23.15
2023-04-08T07:56:54.626Z,24.25
2023-04-08T08:01:56.379Z,22.55
2023-04-08T08:06:58.098Z,21.77
2023-04-08T08:11:59.671Z,20.20
2023-04-08T08:17:01.472Z,15.35
2023-04-08T08:22:03.020Z,13.40
2023-04-08T08:27:06.597Z,13.18
2023-04-08T08:32:08.495Z,11.73
2023-04-08T08:37:10.308Z,10.02
2023-04-08T08:42:23.275Z,12.18
2023-04-08T08:47:24.916Z,11.50
2023-04-08T08:52:26.433Z,10.40
2023-04-08T08:57:27.963Z,35.35
2023-04-08T09:02:32.310Z,10.52
2023-04-08T09:07:40.567Z,9.65
2023-04-08T09:12:56.580Z,10.27
2023-04-08T09:17:58.778Z,10.13
2023-04-08T09:23:02.304Z,12.87
2023-04-08T09:28:03.883Z,11.60
2023-04-08T09:33:07.324Z,13.15
2023-04-08T09:38:09.237Z,12.45
2023-04-08T09:43:15.899Z,12.90
2023-04-08T09:48:21.957Z,10.90
2023-04-08T09:53:36.701Z,12.23
2023-04-08T09:58:49.656Z,14.57
2023-04-08T10:08:57.076Z,15.10
2023-04-08T10:13:58.807Z,13.13
2023-04-08T10:19:00.444Z,15.05
2023-04-08T10:24:07.747Z,23.60
2023-04-08T10:29:18.442Z,16.33
2023-04-08T10:34:22.867Z,27.88
2023-04-08T10:39:26.012Z,16.98
2023-04-08T10:44:27.676Z,17.23
2023-04-08T10:49:33.687Z,16.38
2023-04-08T10:54:36.333Z,20.00
2023-04-08T10:59:39.694Z,16.73
2023-04-08T11:04:44.833Z,13.07
2023-04-08T11:09:46.352Z,14.50
2023-04-08T11:14:49.668Z,11.80
2023-04-08T11:19:52.620Z,11.68
2023-04-08T11:24:56.222Z,13.95
2023-04-08T11:29:57.942Z,12.38
2023-04-08T11:35:05.027Z,12.75
2023-04-08T11:40:11.325Z,12.93
2023-04-08T11:45:16.062Z,24.40
2023-04-08T11:50:25.503Z,19.95
2023-04-08T11:55:28.224Z,222.63
2023-04-08T12:00:31.109Z,137.93
2023-04-08T12:10:34.131Z,65.00
2023-04-08T12:15:35.621Z,26.35
2023-04-08T12:20:37.110Z,22.42
2023-04-08T12:25:38.980Z,18.85
2023-04-08T12:30:40.924Z,64.20
2023-04-08T12:35:43.384Z,25.85
2023-04-08T12:40:44.915Z,65.45
2023-04-08T12:45:46.828Z,46.65
2023-04-08T12:50:48.370Z,44.37
2023-04-08T12:55:51.352Z,125.28
2023-04-08T13:00:52.912Z,55.20
2023-04-08T13:05:54.436Z,118.30
2023-04-08T13:10:55.976Z,31.35
2023-04-08T13:15:57.780Z,30.25
2023-04-08T13:21:02.302Z,27.48
2023-04-08T13:26:03.835Z,25.55
2023-04-08T13:31:05.743Z,30.27
2023-04-08T13:36:07.294Z,25.60
2023-04-08T13:41:08.789Z,30.10
2023-04-08T13:46:10.351Z,32.45
2023-04-08T13:51:11.971Z,58.95
2023-04-08T13:56:13.543Z,28.55
2023-04-08T14:01:15.090Z,25.80
2023-04-08T14:06:16.581Z,29.20
2023-04-08T14:11:18.055Z,34.05
2023-04-08T14:16:19.575Z,77.03
2023-04-08T14:21:21.184Z,40.20
2023-04-08T14:26:22.643Z,35.92
2023-04-08T14:31:24.241Z,33.83
2023-04-08T14:36:27.830Z,31.85
2023-04-08T14:55:47.019Z,23.00
2023-04-08T15:00:48.582Z,21.95
2023-04-08T15:05:50.204Z,21.45
2023-04-08T15:10:51.771Z,20.60
2023-04-08T15:15:53.224Z,20.10
2023-04-08T15:20:54.837Z,18.73
2023-04-08T15:25:57.495Z,17.98
2023-04-08T15:30:59.006Z,14.70
2023-04-08T15:36:03.843Z,73.07
2023-04-08T15:41:05.602Z,20.30
2023-04-08T15:46:07.202Z,15.93
2023-04-08T15:51:09.080Z,14.07
2023-04-08T15:56:16.664Z,14.95
2023-04-08T16:01:19.980Z,25.25
2023-04-08T16:06:21.478Z,16.27
2023-04-08T16:11:23.682Z,17.50
2023-04-08T16:16:25.243Z,19.17
2023-04-08T16:21:26.683Z,18.90
2023-04-08T16:26:28.626Z,21.77
2023-04-08T16:36:33.035Z,28.00
2023-04-08T16:41:34.431Z,22.02
2023-04-08T16:46:36.512Z,21.70
2023-04-08T16:51:37.964Z,23.50
2023-04-08T16:56:44.134Z,25.75
2023-04-08T17:01:45.703Z,28.25
2023-04-08T17:06:47.105Z,35.42
2023-04-08T17:11:48.551Z,34.75
2023-04-08T17:16:50.452Z,24.33
2023-04-08T17:21:52.011Z,23.65
2023-04-08T17:26:53.478Z,25.55
2023-04-08T17:31:54.915Z,22.90
2023-04-08T17:36:57.137Z,22.25
2023-04-08T17:41:58.627Z,23.67
2023-04-08T17:47:00.532Z,22.98
2023-04-08T17:52:02.125Z,24.42
2023-04-08T17:57:03.936Z,28.10
2023-04-08T18:02:05.411Z,29.13
2023-04-08T18:07:06.889Z,32.95
2023-04-08T18:12:08.276Z,33.40
2023-04-08T18:17:09.749Z,23.67
2023-04-08T18:22:11.293Z,24.23
2023-04-08T18:27:12.761Z,30.67
2023-04-08T18:32:14.156Z,27.55
2023-04-08T18:37:16.892Z,28.88
2023-04-08T18:42:18.435Z,23.70
2023-04-08T18:47:20.024Z,24.38
2023-04-08T18:52:21.429Z,26.52
2023-04-08T18:57:22.924Z,24.45
2023-04-08T19:02:24.495Z,24.23
2023-04-08T19:07:27.256Z,22.92
2023-04-08T19:12:28.664Z,23.05
2023-04-08T19:17:30.632Z,19.85
2023-04-08T19:22:32.770Z,22.35
2023-04-08T19:27:34.164Z,21.87
2023-04-08T19:32:36.226Z,22.15
2023-04-08T19:37:37.643Z,25.67
2023-04-08T19:42:39.066Z,23.13
2023-04-08T19:47:43.123Z,22.45
2023-04-08T19:52:44.624Z,21.02
2023-04-08T19:57:46.051Z,27.67
2023-04-08T20:02:47.857Z,26.25
2023-04-08T20:07:49.829Z,25.58
2023-04-08T20:12:52.566Z,24.42
2023-04-08T20:17:54.092Z,27.23
2023-04-08T20:22:56.011Z,26.10
2023-04-08T20:27:57.442Z,24.75
2023-04-08T20:32:58.896Z,24.88
2023-04-08T20:38:00.346Z,27.63
2023-04-08T20:43:02.321Z,24.25
2023-04-08T20:48:05.511Z,32.37
2023-04-08T20:58:09.235Z,26.08
2023-04-08T21:03:10.760Z,30.05
2023-04-08T21:08:12.390Z,29.70
2023-04-08T21:13:13.809Z,31.48
2023-04-08T21:18:15.329Z,31.58
2023-04-08T21:23:16.805Z,41.33
2023-04-08T21:28:18.231Z,34.53
2023-04-08T21:33:19.648Z,29.95
2023-04-08T21:38:21.087Z,28.52
2023-04-08T21:43:22.624Z,29.38
2023-04-08T21:48:24.080Z,26.30
2023-04-08T21:53:25.518Z,30.55
2023-04-08T21:58:28.101Z,28.50
